createdAt,value
2023-07-16T00:03:31.307Z,3.00
2023-07-16T00:08:36.762Z,4.50
2023-07-16T00:13:48.365Z,6.00
2023-07-16T00:18:53.575Z,4.00
2023-07-16T00:24:00.787Z,4.00
2023-07-16T00:29:07.563Z,4.00
2023-07-16T00:34:15.090Z,6.00
2023-07-16T00:39:21.179Z,8.50
2023-07-16T00:44:28.692Z,7.00
2023-07-16T00:49:34.794Z,5.33
2023-07-16T00:54:40.908Z,8.00
2023-07-16T00:59:47.701Z,4.00
2023-07-16T01:04:55.578Z,4.50
2023-07-16T01:10:01.499Z,5.33
2023-07-16T01:15:07.586Z,5.00
2023-07-16T01:20:13.670Z,4.67
2023-07-16T01:25:46.523Z,7.00
2023-07-16T01:30:55.541Z,3.33
2023-07-16T01:36:03.298Z,3.00
2023-07-16T01:41:08.973Z,5.50
2023-07-16T01:46:15.269Z,2.00
2023-07-16T01:51:22.477Z,6.00
2023-07-16T01:56:27.886Z,2.00
2023-07-16T02:01:34.379Z,4.67
2023-07-16T02:06:39.970Z,8.00
2023-07-16T02:11:45.533Z,3.33
2023-07-16T02:16:51.021Z,6.67
2023-07-16T02:21:57.045Z,6.67
2023-07-16T02:27:03.839Z,4.00
2023-07-16T02:32:09.922Z,9.00
2023-07-16T02:37:15.876Z,8.00
2023-07-16T02:42:21.257Z,3.00
2023-07-16T02:47:26.582Z,4.00
2023-07-16T02:52:32.187Z,4.00
2023-07-16T02:57:37.469Z,4.00
2023-07-16T03:02:43.164Z,8.00
2023-07-16T03:07:48.459Z,6.00
2023-07-16T03:12:55.994Z,5.33
2023-07-16T03:18:01.590Z,2.00
2023-07-16T03:23:08.260Z,3.50
2023-07-16T03:28:13.909Z,2.00
2023-07-16T03:33:19.954Z,8.00
2023-07-16T03:38:25.877Z,4.50
2023-07-16T03:43:31.911Z,4.00
2023-07-16T03:48:48.907Z,7.00
2023-07-16T03:53:54.304Z,4.00
2023-07-16T03:59:00.121Z,4.00
2023-07-16T04:04:05.656Z,5.00
2023-07-16T04:09:11.287Z,5.50
2023-07-16T04:14:16.508Z,4.50
2023-07-16T04:19:22.929Z,8.00
2023-07-16T04:24:30.077Z,8.00
2023-07-16T04:29:35.626Z,6.00
2023-07-16T04:34:42.600Z,6.00
2023-07-16T04:39:48.061Z,4.00
2023-07-16T04:44:54.905Z,0.00
2023-07-16T04:50:02.151Z,6.00
2023-07-16T04:55:08.897Z,10.00
2023-07-16T05:00:14.907Z,3.33
2023-07-16T05:05:20.518Z,7.00
2023-07-16T05:10:26.756Z,7.33
2023-07-16T05:15:32.812Z,8.00
2023-07-16T05:20:38.140Z,5.50
2023-07-16T05:25:50.149Z,8.67
2023-07-16T05:31:06.271Z,8.00
2023-07-16T05:36:12.508Z,9.00
2023-07-16T05:41:17.948Z,8.00
2023-07-16T05:46:24.318Z,8.00
2023-07-16T05:51:29.967Z,5.00
2023-07-16T05:56:35.691Z,2.00
2023-07-16T06:01:44.093Z,10.00
2023-07-16T06:06:52.672Z,4.00
2023-07-16T06:11:59.473Z,8.00
2023-07-16T06:17:04.412Z,8.00
2023-07-16T06:22:11.303Z,12.50
2023-07-16T06:27:15.996Z,6.50
2023-07-16T06:32:21.277Z,4.00
2023-07-16T06:37:26.486Z,5.50
2023-07-16T06:42:31.423Z,2.67
2023-07-16T06:47:36.698Z,6.00
2023-07-16T06:52:41.781Z,8.00
2023-07-16T06:57:47.431Z,4.00
2023-07-16T07:02:52.379Z,7.33
2023-07-16T07:07:58.257Z,6.67
2023-07-16T07:13:03.268Z,8.00
2023-07-16T07:18:08.490Z,4.00
2023-07-16T07:23:13.339Z,8.00
2023-07-16T07:28:19.652Z,6.67
2023-07-16T07:33:24.773Z,4.00
2023-07-16T07:38:32.322Z,4.00
2023-07-16T07:43:37.323Z,14.00
2023-07-16T07:48:42.048Z,8.50
2023-07-16T07:53:46.951Z,11.00
2023-07-16T07:58:51.742Z,4.50
2023-07-16T08:03:56.937Z,4.00
2023-07-16T08:09:01.896Z,6.00
2023-07-16T08:14:07.978Z,11.00
2023-07-16T08:19:13.148Z,8.50
2023-07-16T08:24:18.162Z,8.00
2023-07-16T08:29:23.134Z,10.50
2023-07-16T08:34:28.204Z,10.00
2023-07-16T08:39:34.726Z,4.00
2023-07-16T08:44:41.403Z,11.33
2023-07-16T08:49:58.336Z,6.00
2023-07-16T08:55:03.394Z,6.00
2023-07-16T09:00:10.085Z,6.00
2023-07-16T09:05:32.372Z,4.00
2023-07-16T09:10:46.574Z,11.00
2023-07-16T09:15:54.760Z,6.00
2023-07-16T09:26:09.057Z,7.00
2023-07-16T09:31:15.129Z,6.67
2023-07-16T09:36:29.172Z,5.00
2023-07-16T09:41:34.188Z,6.00
2023-07-16T09:46:39.203Z,7.33
2023-07-16T09:51:45.867Z,8.50
2023-07-16T09:57:03.018Z,8.00
2023-07-16T10:02:10.230Z,8.67
2023-07-16T10:07:26.662Z,6.67
2023-07-16T10:12:31.699Z,11.00
2023-07-16T10:17:37.131Z,10.67
2023-07-16T10:22:50.267Z,6.00
2023-07-16T10:27:57.128Z,14.00
2023-07-16T10:33:06.882Z,12.00
2023-07-16T10:38:12.989Z,11.33
2023-07-16T10:43:20.548Z,5.00
2023-07-16T10:48:30.018Z,10.50
2023-07-16T10:53:34.936Z,11.50
2023-07-16T10:58:40.843Z,8.50
2023-07-16T11:03:46.061Z,13.33
2023-07-16T11:08:52.432Z,13.50
2023-07-16T11:13:58.359Z,10.50
2023-07-16T11:19:07.358Z,12.50
2023-07-16T11:24:18.285Z,13.50
2023-07-16T11:29:24.401Z,8.00
2023-07-16T11:34:29.348Z,12.00
2023-07-16T11:39:34.087Z,9.00
2023-07-16T11:44:40.394Z,8.00
2023-07-16T11:49:45.328Z,12.50
2023-07-16T11:54:51.080Z,14.00
2023-07-16T11:59:55.898Z,14.00
2023-07-16T12:05:01.069Z,14.00
2023-07-16T12:10:08.660Z,14.00
2023-07-16T12:15:14.626Z,13.33
2023-07-16T12:20:19.710Z,12.00
2023-07-16T12:25:27.828Z,14.33
2023-07-16T12:30:32.910Z,13.50
2023-07-16T12:35:38.224Z,14.00
2023-07-16T12:40:43.650Z,15.00
2023-07-16T12:45:49.082Z,14.50
2023-07-16T12:50:56.137Z,14.50
2023-07-16T12:56:03.704Z,12.00
2023-07-16T13:01:08.619Z,8.67
2023-07-16T13:06:13.685Z,6.00
2023-07-16T13:11:18.792Z,6.00
2023-07-16T13:16:23.681Z,15.00
2023-07-16T13:21:29.823Z,14.00
2023-07-16T13:26:35.052Z,12.50
2023-07-16T13:31:40.364Z,12.50
2023-07-16T13:36:45.522Z,13.00
2023-07-16T13:41:50.993Z,10.00
2023-07-16T13:46:56.589Z,13.33
2023-07-16T13:52:02.655Z,14.00
2023-07-16T13:57:08.251Z,15.00
2023-07-16T14:02:14.642Z,15.00
2023-07-16T14:07:19.752Z,15.00
2023-07-16T14:12:25.183Z,15.00
2023-07-16T14:17:31.974Z,14.33
2023-07-16T14:22:37.454Z,14.50
2023-07-16T14:27:42.707Z,19.50
2023-07-16T14:32:47.974Z,17.00
2023-07-16T14:37:54.595Z,15.00
2023-07-16T14:42:59.989Z,22.33
2023-07-16T14:48:06.753Z,15.00
2023-07-16T14:53:14.158Z,12.00
2023-07-16T14:58:24.043Z,14.33
2023-07-16T15:03:29.311Z,17.00
2023-07-16T15:08:35.394Z,17.00
2023-07-16T15:13:42.115Z,17.00
2023-07-16T15:18:48.641Z,14.00
2023-07-16T15:23:54.871Z,15.00
2023-07-16T15:29:00.569Z,14.50
2023-07-16T15:34:07.698Z,15.00
2023-07-16T15:39:16.520Z,17.00
2023-07-16T15:44:23.761Z,15.00
2023-07-16T15:49:29.464Z,14.33
2023-07-16T15:54:34.827Z,14.67
2023-07-16T15:59:40.222Z,18.00
2023-07-16T16:04:45.701Z,17.00
2023-07-16T16:09:52.285Z,13.00
2023-07-16T16:14:57.667Z,15.00
2023-07-16T16:20:02.922Z,15.50
2023-07-16T16:25:11.250Z,15.00
2023-07-16T16:30:18.985Z,15.50
2023-07-16T16:35:28.664Z,16.00
2023-07-16T16:40:41.069Z,14.00
2023-07-16T16:45:46.728Z,17.00
2023-07-16T16:50:52.169Z,18.00
2023-07-16T16:55:58.759Z,15.00
2023-07-16T17:01:05.865Z,15.00
2023-07-16T17:06:11.046Z,18.00
2023-07-16T17:11:16.612Z,14.50
2023-07-16T17:16:22.402Z,17.75
2023-07-16T17:21:29.183Z,17.00
2023-07-16T17:26:34.540Z,14.00
2023-07-16T17:31:39.672Z,14.67
2023-07-16T17:36:44.944Z,14.75
2023-07-16T17:41:50.099Z,15.00
2023-07-16T17:46:55.056Z,14.33
2023-07-16T17:52:00.130Z,15.00
2023-07-16T17:57:06.705Z,15.67
2023-07-16T18:02:13.499Z,14.75
2023-07-16T18:07:19.361Z,20.25
2023-07-16T18:12:24.421Z,14.00
2023-07-16T18:17:30.138Z,17.00
2023-07-16T18:22:35.895Z,16.00
2023-07-16T18:27:41.070Z,17.33
2023-07-16T18:32:47.369Z,11.50
2023-07-16T18:37:52.376Z,14.00
2023-07-16T18:43:06.302Z,15.00
2023-07-16T18:48:11.446Z,17.00
2023-07-16T18:53:16.746Z,14.33
2023-07-16T18:58:24.583Z,15.00
2023-07-16T19:03:29.739Z,14.00
2023-07-16T19:08:34.741Z,24.33
2023-07-16T19:18:45.803Z,16.50
2023-07-16T19:23:50.830Z,18.00
2023-07-16T19:28:56.914Z,18.00
2023-07-16T19:34:02.531Z,14.25
2023-07-16T19:39:08.350Z,21.33
2023-07-16T19:44:13.104Z,14.33
2023-07-16T19:49:18.877Z,15.50
2023-07-16T19:54:23.856Z,19.67
2023-07-16T19:59:28.921Z,19.00
2023-07-16T20:04:33.838Z,24.00
2023-07-16T20:09:38.967Z,15.50
2023-07-16T20:14:44.887Z,17.00
2023-07-16T20:19:50.044Z,20.00
2023-07-16T20:24:55.005Z,20.00
2023-07-16T20:30:00.843Z,19.50
2023-07-16T20:35:10.450Z,18.00
2023-07-16T20:40:17.503Z,17.50
2023-07-16T20:45:23.535Z,20.00
2023-07-16T20:50:30.974Z,23.50
2023-07-16T20:55:36.147Z,19.00
2023-07-16T21:00:41.263Z,21.50
2023-07-16T21:05:46.336Z,14.67
2023-07-16T21:10:51.375Z,21.00
2023-07-16T21:15:56.902Z,23.00
2023-07-16T21:21:01.815Z,18.00
2023-07-16T21:26:07.311Z,24.00
2023-07-16T21:31:13.469Z,29.00
2023-07-16T21:41:23.217Z,24.67
2023-07-16T21:46:28.824Z,19.33
2023-07-16T21:51:34.721Z,18.00
2023-07-16T21:56:39.560Z,16.50
2023-07-16T22:01:44.626Z,20.00
2023-07-16T22:06:49.357Z,19.33
2023-07-16T22:11:54.450Z,20.00
2023-07-16T22:16:59.347Z,18.00
2023-07-16T22:22:05.113Z,20.00
2023-07-16T22:27:10.030Z,18.00
2023-07-16T22:32:15.802Z,22.33
2023-07-16T22:37:20.726Z,23.00
2023-07-16T22:42:27.284Z,23.00
2023-07-16T22:47:32.209Z,19.33
2023-07-16T22:52:37.179Z,20.00
2023-07-16T22:57:42.155Z,18.00
2023-07-16T23:02:48.082Z,23.00
2023-07-16T23:07:53.353Z,28.00
2023-07-16T23:12:59.036Z,26.00
2023-07-16T23:18:04.422Z,17.33
2023-07-16T23:23:09.307Z,22.00
2023-07-16T23:28:15.193Z,19.00
2023-07-16T23:33:20.799Z,22.67
2023-07-16T23:38:25.689Z,25.00
2023-07-16T23:43:30.571Z,26.00
2023-07-16T23:48:35.549Z,21.00
2023-07-16T23:53:42.245Z,25.00
2023-07-16T23:58:50.905Z,23.00
